Time;durP1;ratioP1;P1;durP2;ratioP2;P2;SDS_P1;SDS_P2;PMS_P1;PMS_P2;Temp;Humidity;BMP_temperature;BMP_pressure;BME280_temperature;BME280_humidity;BME280_pressure;Samples;Min_cycle;Max_cycle;Signal;HPM_P1;HPM_P2
2023/09/03 04:22:37;;;;;;;8.70;4.50;;;;;;;16.45;100.00;100986.88;5089431;28;20396;-70
2023/09/03 04:25:02;;;;;;;7.45;4.45;;;;;;;16.43;100.00;100983.56;5089454;28;20516;-70
2023/09/03 04:27:28;;;;;;;9.18;4.68;;;;;;;16.45;100.00;100986.88;5089334;28;20115;-70
2023/09/03 04:29:54;;;;;;;8.43;4.40;;;;;;;16.44;100.00;100990.59;5089010;28;20491;-70
2023/09/03 04:32:19;;;;;;;8.98;4.28;;;;;;;16.35;100.00;100991.75;5089451;28;20544;-69
2023/09/03 04:34:44;;;;;;;8.32;3.97;;;;;;;16.30;100.00;100994.19;5088000;28;20147;-69
2023/09/03 04:37:10;;;;;;;7.57;4.78;;;;;;;16.27;100.00;100999.94;5087875;28;20509;-69
2023/09/03 04:39:36;;;;;;;7.80;4.20;;;;;;;16.26;100.00;100996.44;5088899;28;20020;-69
2023/09/03 04:42:04;;;;;;;6.85;4.25;;;;;;;16.31;100.00;100995.88;5087805;28;20033;-69
2023/09/03 04:44:29;;;;;;;6.30;4.25;;;;;;;16.26;100.00;100996.44;5089071;28;20032;-70
2023/09/03 04:46:56;;;;;;;7.05;4.13;;;;;;;16.36;100.00;100997.94;5087612;28;20071;-70
2023/09/03 04:49:23;;;;;;;6.77;3.80;;;;;;;16.38;100.00;101001.31;5087434;28;20094;-70
2023/09/03 04:51:48;;;;;;;9.73;4.30;;;;;;;16.36;100.00;101006.00;5087699;28;20028;-69
2023/09/03 04:54:14;;;;;;;8.45;3.95;;;;;;;16.39;100.00;101008.34;5088893;28;20115;-69
2023/09/03 04:56:40;;;;;;;11.30;4.25;;;;;;;16.40;100.00;101010.00;5087621;28;20525;-69
2023/09/03 04:59:05;;;;;;;9.68;4.15;;;;;;;16.36;100.00;101014.91;5087425;28;20041;-70
2023/09/03 05:01:32;;;;;;;6.63;4.50;;;;;;;16.42;100.00;101011.44;5087370;28;20075;-69
2023/09/03 05:03:58;;;;;;;6.53;4.00;;;;;;;16.47;100.00;101017.09;5087368;28;20036;-70
2023/09/03 05:06:24;;;;;;;7.10;4.13;;;;;;;16.49;100.00;101022.28;5087332;28;20032;-70
2023/09/03 05:08:52;;;;;;;8.25;4.80;;;;;;;16.46;100.00;101028.88;5087298;28;20032;-69
2023/09/03 05:11:19;;;;;;;7.68;4.35;;;;;;;16.39;100.00;101030.69;5087227;28;20033;-69
2023/09/03 05:13:46;;;;;;;7.82;4.32;;;;;;;16.46;100.00;101031.56;5087161;28;20519;-69
2023/09/03 05:16:13;;;;;;;6.78;4.07;;;;;;;16.47;100.00;101035.09;5087145;28;20448;-70
2023/09/03 05:18:40;;;;;;;6.95;4.13;;;;;;;16.52;100.00;101043.41;5087035;28;20044;-69
2023/09/03 05:21:07;;;;;;;9.05;4.45;;;;;;;16.50;100.00;101050.84;5087981;28;20043;-70
2023/09/03 05:23:34;;;;;;;6.32;4.15;;;;;;;16.54;100.00;101052.94;5086939;28;20032;-70
2023/09/03 05:26:00;;;;;;;6.25;4.35;;;;;;;16.56;100.00;101063.50;5088217;28;20418;-69
2023/09/03 05:28:26;;;;;;;6.85;4.25;;;;;;;16.53;100.00;101061.22;5086935;28;20044;-70
2023/09/03 05:30:51;;;;;;;5.68;4.20;;;;;;;16.60;100.00;101063.97;5087855;28;20491;-70
2023/09/03 05:33:17;;;;;;;6.20;3.83;;;;;;;16.64;100.00;101063.38;5076924;28;20069;-69
2023/09/03 05:35:43;;;;;;;9.70;4.15;;;;;;;16.67;100.00;101060.28;5074558;28;20043;-70
2023/09/03 05:38:08;;;;;;;7.20;3.80;;;;;;;16.69;100.00;101046.66;5073325;28;20540;-69
2023/09/03 05:40:34;;;;;;;5.82;3.58;;;;;;;16.71;100.00;101045.47;5073002;28;20472;-69
2023/09/03 05:42:59;;;;;;;5.50;4.32;;;;;;;16.75;100.00;101041.34;5074453;28;20518;-69
2023/09/03 05:45:25;;;;;;;8.88;4.18;;;;;;;16.74;100.00;101036.19;5073054;28;20097;-69
2023/09/03 05:47:51;;;;;;;6.75;3.80;;;;;;;16.82;100.00;101038.72;5073054;28;20463;-70
2023/09/03 05:50:17;;;;;;;5.10;4.13;;;;;;;16.79;100.00;101041.81;5074064;28;20052;-69
2023/09/03 05:52:43;;;;;;;6.72;4.07;;;;;;;16.88;100.00;101035.25;5074320;28;20499;-69
2023/09/03 05:55:09;;;;;;;7.43;4.47;;;;;;;16.88;100.00;101046.00;5072816;28;20040;-69
2023/09/03 05:57:34;;;;;;;7.82;5.07;;;;;;;16.96;100.00;101061.22;5072923;28;20033;-70
2023/09/03 06:00:00;;;;;;;6.00;3.95;;;;;;;16.93;100.00;101070.47;5072597;28;20028;-70
2023/09/03 06:02:26;;;;;;;6.20;3.72;;;;;;;16.99;100.00;101068.88;5072811;28;20033;-58
2023/09/03 06:04:52;;;;;;;5.13;3.58;;;;;;;17.05;100.00;101066.22;5072795;28;20123;-58
2023/09/03 06:07:17;;;;;;;6.85;3.17;;;;;;;17.11;100.00;101053.03;5072742;28;20044;-58
2023/09/03 06:09:44;;;;;;;4.75;3.10;;;;;;;17.02;100.00;101050.50;5073755;28;20049;-55
2023/09/03 06:12:10;;;;;;;6.22;3.25;;;;;;;17.13;100.00;101059.03;5074056;28;20072;-56
2023/09/03 06:14:35;;;;;;;6.32;3.25;;;;;;;17.18;100.00;101072.75;5073865;28;20075;-60
2023/09/03 06:17:02;;;;;;;4.80;3.15;;;;;;;17.24;100.00;101083.56;5073826;28;20043;-56
2023/09/03 06:19:27;;;;;;;4.93;3.35;;;;;;;17.31;100.00;101087.13;5073616;28;20040;-57
2023/09/03 06:21:53;;;;;;;4.95;3.90;;;;;;;17.34;100.00;101093.97;5073759;28;20047;-55
2023/09/03 06:24:18;;;;;;;8.27;3.25;;;;;;;17.42;100.00;101093.84;5073807;28;20059;-55
2023/09/03 06:26:43;;;;;;;5.70;3.30;;;;;;;17.46;100.00;101092.38;5073537;28;20044;-56
2023/09/03 06:29:09;;;;;;;5.75;3.90;;;;;;;17.55;100.00;101104.69;5073405;28;20044;-55
2023/09/03 06:31:34;;;;;;;4.95;3.20;;;;;;;17.59;100.00;101107.81;5073395;28;20080;-57
2023/09/03 06:34:00;;;;;;;3.78;3.00;;;;;;;17.58;100.00;101106.97;5073360;28;20039;-58
2023/09/03 06:36:25;;;;;;;8.50;3.42;;;;;;;17.68;100.00;101117.41;5073104;28;20054;-57
2023/09/03 06:38:51;;;;;;;6.70;3.60;;;;;;;17.74;100.00;101110.44;5073401;28;20045;-54
2023/09/03 06:41:17;;;;;;;6.70;3.20;;;;;;;17.85;100.00;101115.22;5073162;28;20033;-56
2023/09/03 06:43:42;;;;;;;5.25;3.33;;;;;;;17.92;100.00;101117.94;5072776;28;20042;-58
2023/09/03 06:46:08;;;;;;;6.13;3.70;;;;;;;17.94;100.00;101114.03;5072815;28;20119;-58
2023/09/03 06:48:34;;;;;;;5.88;3.20;;;;;;;18.03;100.00;101117.38;5073210;28;20491;-57
2023/09/03 06:50:59;;;;;;;5.35;3.40;;;;;;;18.14;100.00;101120.34;5073033;28;20033;-55
2023/09/03 06:53:25;;;;;;;7.03;4.15;;;;;;;18.21;100.00;101128.47;5073132;28;20127;-60
2023/09/03 06:55:51;;;;;;;5.88;3.45;;;;;;;18.27;100.00;101134.91;5073073;28;20044;-59
2023/09/03 06:58:16;;;;;;;4.78;3.22;;;;;;;18.32;100.00;101135.97;5072974;28;20100;-58
2023/09/03 07:00:42;;;;;;;6.43;3.40;;;;;;;18.38;100.00;101139.69;5073877;28;20483;-61
2023/09/03 07:03:07;;;;;;;5.45;3.60;;;;;;;18.44;100.00;101136.19;5075121;28;20105;-55
2023/09/03 07:05:33;;;;;;;6.30;3.85;;;;;;;18.51;100.00;101139.72;5077175;28;20041;-58
2023/09/03 07:07:58;;;;;;;5.57;3.33;;;;;;;18.56;100.00;101137.25;5072743;28;20039;-59
2023/09/03 07:10:23;;;;;;;4.90;3.50;;;;;;;18.59;100.00;101144.13;5072473;28;20055;-58
2023/09/03 07:12:49;;;;;;;5.65;3.08;;;;;;;18.65;100.00;101146.84;5073074;28;20041;-55
2023/09/03 07:15:14;;;;;;;5.00;3.10;;;;;;;18.66;100.00;101148.53;5086171;28;20036;-59
2023/09/03 07:17:39;;;;;;;6.38;3.78;;;;;;;18.65;100.00;101149.53;5092914;28;20411;-58
2023/09/03 07:20:05;;;;;;;4.93;3.20;;;;;;;18.71;100.00;101150.59;5092554;28;20036;-59
2023/09/03 07:22:31;;;;;;;7.45;3.72;;;;;;;18.72;100.00;101155.00;5093025;28;20119;-60
2023/09/03 07:24:56;;;;;;;4.20;2.92;;;;;;;18.82;100.00;101163.50;5092761;28;20118;-58
2023/09/03 07:27:22;;;;;;;7.90;3.92;;;;;;;18.82;100.00;101163.50;5092564;28;20043;-59
2023/09/03 07:29:54;;;;;;;7.72;4.30;;;;;;;18.94;100.00;101163.72;5086114;28;20032;-58
2023/09/03 07:32:22;;;;;;;5.28;3.60;;;;;;;19.01;100.00;101161.88;5082119;28;20043;-55
2023/09/03 07:34:49;;;;;;;6.80;3.83;;;;;;;19.05;100.00;101171.22;5078395;28;20028;-57
2023/09/03 07:37:15;;;;;;;5.13;3.45;;;;;;;19.16;100.00;101180.56;5072264;28;20070;-60
2023/09/03 07:39:40;;;;;;;5.85;3.40;;;;;;;19.21;100.00;101178.91;5071829;28;20044;-66
2023/09/03 07:42:06;;;;;;;5.15;3.67;;;;;;;19.25;100.00;101185.56;5071073;28;20036;-66
2023/09/03 07:44:31;;;;;;;6.25;3.40;;;;;;;19.31;100.00;101183.91;5072150;28;20045;-66
2023/09/03 07:46:56;;;;;;;6.78;4.32;;;;;;;19.35;100.00;101177.03;5072076;28;20448;-67
2023/09/03 07:49:23;;;;;;;5.30;3.65;;;;;;;19.44;100.00;101174.97;5071925;28;20045;-66
2023/09/03 07:51:48;;;;;;;8.13;3.60;;;;;;;19.47;100.00;101169.97;5071993;28;20131;-67
2023/09/03 07:54:15;;;;;;;5.95;3.55;;;;;;;19.57;100.00;101164.16;5072112;28;20112;-67
2023/09/03 07:56:42;;;;;;;5.32;3.67;;;;;;;19.67;100.00;101175.38;5071801;28;20033;-66
2023/09/03 07:59:07;;;;;;;4.43;3.13;;;;;;;19.80;100.00;101177.22;5071724;28;20036;-67
2023/09/03 08:01:33;;;;;;;4.13;3.30;;;;;;;19.83;100.00;101170.56;5072058;28;20393;-67
2023/09/03 08:03:58;;;;;;;6.13;2.80;;;;;;;19.93;100.00;101181.75;5072015;28;20398;-66
2023/09/03 08:06:24;;;;;;;5.22;2.70;;;;;;;20.02;100.00;101183.22;5071921;28;20032;-66
2023/09/03 08:08:54;;;;;;;4.88;2.70;;;;;;;20.05;100.00;101182.78;5071846;28;20115;-66
2023/09/03 08:11:23;;;;;;;4.85;2.80;;;;;;;20.16;100.00;101184.00;5071911;28;20036;-67
2023/09/03 08:13:57;;;;;;;5.82;2.40;;;;;;;20.20;100.00;101183.34;5071820;28;20040;-67
2023/09/03 08:16:22;;;;;;;3.45;2.35;;;;;;;20.37;100.00;101199.09;5070659;28;20040;-67
2023/09/03 08:18:48;;;;;;;4.38;2.47;;;;;;;20.48;100.00;101206.59;5071836;28;20115;-67
2023/09/03 08:21:13;;;;;;;3.10;2.63;;;;;;;20.52;100.00;101205.91;5071421;28;20028;-66
2023/09/03 08:23:40;;;;;;;3.47;2.53;;;;;;;20.62;100.00;101199.22;5070657;28;20040;-66
2023/09/03 08:26:06;;;;;;;4.25;2.50;;;;;;;20.67;100.00;101192.13;5071674;28;20036;-67
2023/09/03 08:28:32;;;;;;;5.50;2.45;;;;;;;20.74;100.00;101195.63;5071671;28;20403;-68
2023/09/03 08:30:57;;;;;;;4.25;2.90;;;;;;;20.74;100.00;101201.03;5071417;28;20036;-67
2023/09/03 08:33:23;;;;;;;3.15;2.50;;;;;;;20.90;100.00;101198.84;5071664;28;20041;-67
2023/09/03 08:35:48;;;;;;;3.78;2.40;;;;;;;21.03;100.00;101204.16;5071567;28;20036;-67
2023/09/03 08:38:13;;;;;;;3.45;2.47;;;;;;;21.13;100.00;101197.22;5071587;28;20048;-67
2023/09/03 08:40:41;;;;;;;4.05;2.65;;;;;;;21.25;100.00;101202.72;5071490;28;20040;-67
2023/09/03 08:43:07;;;;;;;3.45;2.63;;;;;;;21.27;100.00;101205.25;5071565;28;20436;-67
2023/09/03 08:45:36;;;;;;;7.00;2.40;;;;;;;21.35;100.00;101210.41;5071740;28;20059;-66
2023/09/03 08:48:02;;;;;;;3.55;2.38;;;;;;;21.42;100.00;101223.91;5071503;28;20411;-66
2023/09/03 08:50:28;;;;;;;4.38;2.53;;;;;;;21.43;100.00;101212.03;5071226;28;20040;-66
2023/09/03 08:52:55;;;;;;;5.72;2.50;;;;;;;21.56;100.00;101203.78;5071578;28;20040;-66
2023/09/03 08:55:21;;;;;;;5.35;2.55;;;;;;;21.66;100.00;101207.63;5071432;28;20124;-67
2023/09/03 08:57:47;;;;;;;4.85;2.25;;;;;;;21.68;100.00;101208.25;5071382;28;20048;-67
2023/09/03 09:00:14;;;;;;;3.88;2.40;;;;;;;21.76;99.14;101220.69;5071175;28;20032;-66
2023/09/03 09:02:42;;;;;;;;;;;;;;;21.80;98.67;101229.22;5071815;28;20040;-66
2023/09/03 09:05:09;;;;;;;2.95;2.13;;;;;;;21.81;98.46;101237.09;5069986;28;20287;-66
2023/09/03 09:07:35;;;;;;;;;;;;;;;21.80;97.73;101224.59;5072735;28;20103;-66
2023/09/03 09:10:09;;;;;;;3.08;2.20;;;;;;;22.00;97.54;101229.81;5074897;28;20379;-67
2023/09/03 09:12:50;;;;;;;3.92;2.25;;;;;;;22.06;95.93;101225.38;5074893;28;20040;-66
2023/09/03 09:15:16;;;;;;;3.45;2.20;;;;;;;22.24;96.92;101230.84;5074934;28;20509;-66
2023/09/03 09:17:43;;;;;;;3.60;2.38;;;;;;;22.37;96.16;101233.41;5074937;28;20119;-67
2023/09/03 09:20:12;;;;;;;3.67;2.40;;;;;;;22.48;94.09;101229.91;5074581;28;20036;-67
2023/09/03 09:22:50;;;;;;;3.75;2.03;;;;;;;22.62;92.28;101241.44;5074826;28;20400;-64
2023/09/03 09:25:23;;;;;;;3.22;2.30;;;;;;;22.66;92.14;101242.63;5074789;28;20044;-65
2023/09/03 09:27:51;;;;;;;3.83;2.05;;;;;;;22.76;91.51;101233.97;5074672;28;20036;-66
2023/09/03 09:30:26;;;;;;;3.78;2.10;;;;;;;22.76;89.20;101236.69;5074375;28;20048;-67
2023/09/03 09:33:05;;;;;;;6.57;2.40;;;;;;;22.94;89.26;101238.53;5074678;28;20040;-66
2023/09/03 09:35:31;;;;;;;3.78;2.20;;;;;;;22.95;88.21;101241.03;5074668;28;20040;-66
2023/09/03 09:38:07;;;;;;;4.63;2.10;;;;;;;23.05;87.17;101242.34;5074636;28;20090;-66
2023/09/03 09:40:36;;;;;;;3.75;2.25;;;;;;;23.17;88.16;101252.19;5074335;28;20040;-67
2023/09/03 09:43:06;;;;;;;2.58;2.10;;;;;;;23.37;87.67;101248.34;5074489;28;20036;-67
2023/09/03 09:45:32;;;;;;;2.75;2.00;;;;;;;23.48;83.20;101251.09;5074603;28;20442;-66
2023/09/03 09:48:06;;;;;;;2.40;1.75;;;;;;;23.45;82.70;101246.09;5074381;28;20098;-66
2023/09/03 09:50:36;;;;;;;3.20;1.75;;;;;;;23.62;83.03;101248.16;5073993;28;20571;-66
2023/09/03 09:53:03;;;;;;;1.83;1.55;;;;;;;23.72;81.53;101245.69;5074289;28;20499;-65
2023/09/03 09:55:31;;;;;;;2.97;1.67;;;;;;;23.90;80.79;101248.28;5074287;28;20115;-66
2023/09/03 09:57:57;;;;;;;2.67;1.88;;;;;;;24.26;80.11;101232.75;5074306;28;20453;-67
2023/09/03 10:00:35;;;;;;;2.97;1.80;;;;;;;24.56;77.42;101238.84;5074019;28;20040;-66
2023/09/03 10:03:02;;;;;;;3.00;1.70;;;;;;;24.68;77.71;101235.25;5074169;28;20427;-67
2023/09/03 10:05:28;;;;;;;2.08;1.60;;;;;;;24.97;74.82;101244.22;5074297;28;20435;-66
2023/09/03 10:07:54;;;;;;;1.70;1.60;;;;;;;25.27;73.22;101235.81;5074100;28;20016;-66
2023/09/03 10:10:20;;;;;;;2.25;1.60;;;;;;;25.34;71.63;101240.03;5073323;28;20127;-66
2023/09/03 10:12:46;;;;;;;2.45;1.50;;;;;;;25.77;68.90;101241.28;5073947;28;20051;-65
2023/09/03 10:15:14;;;;;;;2.30;1.33;;;;;;;26.11;66.21;101236.56;5073870;28;20036;-65
2023/09/03 10:17:41;;;;;;;1.92;1.52;;;;;;;26.41;63.09;101236.19;5073868;28;20078;-66
2023/09/03 10:20:11;;;;;;;2.85;1.35;;;;;;;26.77;62.24;101228.38;5073351;28;20487;-65
2023/09/03 10:22:40;;;;;;;2.13;1.58;;;;;;;27.02;60.81;101230.53;5073887;28;20148;-66
2023/09/03 10:25:12;;;;;;;3.10;1.25;;;;;;;27.36;60.68;101227.59;5073657;28;20079;-66
2023/09/03 10:27:43;;;;;;;2.47;1.30;;;;;;;27.61;59.00;101224.22;5073847;28;20047;-66
2023/09/03 10:30:14;;;;;;;2.13;1.17;;;;;;;27.96;56.56;101223.63;5073377;28;20047;-66
2023/09/03 10:32:41;;;;;;;2.50;1.30;;;;;;;27.94;57.40;101217.63;5073627;28;20428;-66
2023/09/03 10:35:08;;;;;;;2.92;1.40;;;;;;;27.98;56.53;101218.75;5073457;28;20039;-66
2023/09/03 10:37:41;;;;;;;1.83;1.20;;;;;;;28.43;54.83;101217.31;5073660;28;20062;-66
2023/09/03 10:40:24;;;;;;;2.22;1.20;;;;;;;28.88;52.60;101214.66;5073144;28;20082;-66
2023/09/03 10:42:51;;;;;;;2.22;1.20;;;;;;;29.11;52.10;101212.56;5073482;28;20115;-66
2023/09/03 10:45:18;;;;;;;;;;;;;;;29.29;50.97;101217.50;5073669;28;20063;-66
2023/09/03 10:48:19;;;;;;;2.42;1.10;;;;;;;28.79;52.00;101212.75;5073301;28;19908;-66
2023/09/03 10:50:50;;;;;;;1.15;0.90;;;;;;;29.03;50.55;101221.31;5030805;28;20124;-66
2023/09/03 10:53:35;;;;;;;2.22;1.13;;;;;;;29.35;49.91;101226.56;5066278;28;20439;-66
2023/09/03 10:56:16;;;;;;;1.67;1.20;;;;;;;29.77;49.52;101215.25;5073101;28;20028;-66
2023/09/03 10:59:01;;;;;;;1.73;0.77;;;;;;;29.79;47.97;101206.75;5072954;28;20036;-66
2023/09/03 11:01:33;;;;;;;1.13;0.93;;;;;;;29.08;48.80;101207.59;5072862;28;20028;-66
2023/09/03 11:04:02;;;;;;;1.55;1.23;;;;;;;29.15;49.08;101209.00;5073024;28;20033;-66
2023/09/03 11:06:32;;;;;;;1.60;1.00;;;;;;;29.45;49.24;101210.88;5072843;28;20040;-65
2023/09/03 11:09:04;;;;;;;1.52;0.88;;;;;;;29.20;50.80;101205.41;5072793;28;20032;-65
2023/09/03 11:11:33;;;;;;;1.20;0.90;;;;;;;29.45;48.16;101205.41;5072675;28;20070;-64
2023/09/03 11:13:59;;;;;;;2.05;1.00;;;;;;;30.23;47.42;101202.22;5072803;28;20043;-65
2023/09/03 11:16:29;;;;;;;2.35;1.13;;;;;;;30.36;46.44;101203.53;5072721;28;20044;-65
2023/09/03 11:18:55;;;;;;;0.88;0.73;;;;;;;30.22;47.50;101195.09;5072661;28;20029;-65
2023/09/03 11:21:24;;;;;;;1.15;1.00;;;;;;;30.60;45.81;101195.44;5072372;28;20114;-65
2023/09/03 11:24:13;;;;;;;3.53;1.02;;;;;;;30.35;46.69;101201.06;5072449;28;20064;-65
2023/09/03 11:26:38;;;;;;;1.63;0.90;;;;;;;31.07;45.02;101197.59;5072492;28;20047;-65
2023/09/03 11:29:20;;;;;;;3.57;1.03;;;;;;;31.36;44.21;101194.06;5072500;28;20041;-65
2023/09/03 11:31:47;;;;;;;1.00;0.80;;;;;;;31.31;44.41;101191.41;5072002;28;20052;-66
2023/09/03 11:34:29;;;;;;;2.08;1.20;;;;;;;31.29;45.52;101194.41;5072401;28;20035;-66
2023/09/03 11:36:55;;;;;;;0.98;0.80;;;;;;;31.72;43.50;101197.31;5071072;28;20066;-65
2023/09/03 11:39:21;;;;;;;1.75;0.90;;;;;;;31.75;43.42;101198.63;5072006;28;20624;-65
2023/09/03 11:41:47;;;;;;;2.35;1.00;;;;;;;32.02;43.02;101193.41;5072234;28;20033;-65
2023/09/03 11:44:21;;;;;;;2.10;0.90;;;;;;;31.90;42.96;101200.47;5072322;28;20028;-66
2023/09/03 11:47:00;;;;;;;1.17;0.95;;;;;;;32.04;42.70;101201.38;5072265;28;20041;-65
2023/09/03 11:49:26;;;;;;;1.00;0.80;;;;;;;32.26;42.42;101193.38;5071925;28;20048;-65
2023/09/03 11:51:52;;;;;;;1.33;1.00;;;;;;;32.27;41.46;101196.94;5072135;28;20040;-65
2023/09/03 11:54:24;;;;;;;1.52;0.90;;;;;;;32.53;41.05;101198.25;5072227;28;20045;-66
2023/09/03 11:56:52;;;;;;;1.90;1.00;;;;;;;32.66;41.72;101193.94;5072042;28;20452;-65
2023/09/03 11:59:18;;;;;;;1.38;0.88;;;;;;;32.91;40.84;101203.81;5065803;28;20415;-66
2023/09/03 12:01:44;;;;;;;1.67;1.23;;;;;;;32.68;40.91;101197.25;5066709;28;20028;-65
2023/09/03 12:04:09;;;;;;;1.97;0.90;;;;;;;31.90;41.52;101189.44;5068568;28;20051;-66
2023/09/03 12:06:36;;;;;;;1.23;1.03;;;;;;;32.78;40.04;101199.00;5071606;28;20059;-66
2023/09/03 12:09:02;;;;;;;0.77;0.68;;;;;;;33.10;40.51;101195.50;5070288;28;20052;-66
2023/09/03 12:11:31;;;;;;;2.67;0.97;;;;;;;32.94;39.57;101192.19;5087353;28;20471;-66
2023/09/03 12:13:56;;;;;;;0.93;0.80;;;;;;;32.63;40.14;101197.31;5078288;28;20028;-66
2023/09/03 12:16:24;;;;;;;1.80;1.07;;;;;;;32.49;40.75;101185.38;5081724;28;20043;-66
2023/09/03 12:18:59;;;;;;;1.10;0.90;;;;;;;32.23;39.91;101193.16;5085430;28;20051;-66
2023/09/03 12:21:33;;;;;;;1.05;0.90;;;;;;;32.02;40.87;101187.09;5072547;28;20082;-65
2023/09/03 12:24:00;;;;;;;1.10;0.90;;;;;;;32.18;40.82;101191.28;5087644;28;20089;-64
2023/09/03 12:26:26;;;;;;;1.42;0.90;;;;;;;31.92;41.38;101189.97;5084740;28;20459;-66
2023/09/03 12:28:54;;;;;;;3.10;1.17;;;;;;;32.20;41.67;101189.03;5075858;28;20069;-65
2023/09/03 12:31:21;;;;;;;1.63;1.02;;;;;;;32.19;41.04;101183.84;5087503;28;20050;-66
2023/09/03 12:33:50;;;;;;;;;;;;;;;32.35;41.07;101180.63;5078173;28;20040;-66
2023/09/03 12:36:18;;;;;;;0.98;0.70;;;;;;;31.92;41.00;101177.00;5080033;28;20018;-66
2023/09/03 12:39:00;;;;;;;1.88;1.00;;;;;;;31.99;39.80;101177.47;5086015;28;20437;-66
2023/09/03 12:41:34;;;;;;;1.05;0.82;;;;;;;32.20;40.41;101179.94;5050960;28;20813;-66
2023/09/03 12:44:07;;;;;;;1.60;1.00;;;;;;;32.17;41.10;101173.13;5055039;28;20048;-65
2023/09/03 12:46:34;;;;;;;0.77;0.73;;;;;;;32.31;40.07;101173.19;5055653;28;20083;-64
2023/09/03 12:49:01;;;;;;;1.92;1.00;;;;;;;31.99;40.93;101168.38;5055523;28;20037;-65
2023/09/03 12:51:26;;;;;;;1.65;1.10;;;;;;;31.97;41.02;101174.19;5055277;28;20040;-65
2023/09/03 12:53:52;;;;;;;1.53;0.90;;;;;;;30.74;43.81;101168.16;5055602;28;20041;-65
2023/09/03 12:56:17;;;;;;;0.80;0.80;;;;;;;31.45;42.52;101181.34;5055299;28;20098;-65
2023/09/03 12:58:43;;;;;;;1.13;1.00;;;;;;;31.73;41.95;101185.16;5055424;28;20033;-66
2023/09/03 13:01:10;;;;;;;1.60;0.90;;;;;;;31.92;40.62;101179.75;5055196;28;20041;-65
2023/09/03 13:03:35;;;;;;;1.00;0.70;;;;;;;31.82;41.37;101185.38;5055289;28;20033;-66
2023/09/03 13:06:01;;;;;;;1.47;0.80;;;;;;;31.88;43.07;101184.19;5077391;28;20028;-65
2023/09/03 13:08:26;;;;;;;1.63;1.10;;;;;;;31.94;41.14;101196.81;5095451;28;20028;-65
2023/09/03 13:10:52;;;;;;;1.53;0.87;;;;;;;31.66;40.54;101190.22;5095008;28;20505;-65
2023/09/03 13:13:18;;;;;;;2.40;0.90;;;;;;;31.75;41.04;101193.13;5095402;28;20097;-66
2023/09/03 13:15:44;;;;;;;1.30;1.00;;;;;;;31.53;42.77;101188.97;5095329;28;20032;-66
2023/09/03 13:18:09;;;;;;;1.52;0.95;;;;;;;32.20;40.49;101193.72;5095386;28;20655;-66
2023/09/03 13:20:35;;;;;;;1.10;1.00;;;;;;;31.47;41.81;101187.38;5094855;28;20073;-66
2023/09/03 13:23:00;;;;;;;0.97;0.97;;;;;;;32.33;40.62;101188.34;5075545;28;20028;-65
2023/09/03 13:25:26;;;;;;;1.20;1.10;;;;;;;31.67;40.11;101191.03;5075754;28;20521;-65
2023/09/03 13:27:52;;;;;;;1.00;0.80;;;;;;;31.71;39.93;101183.84;5095128;28;20055;-65
2023/09/03 13:30:17;;;;;;;1.43;1.10;;;;;;;31.65;40.66;101182.25;5094780;28;20525;-66
2023/09/03 13:32:43;;;;;;;1.40;0.90;;;;;;;31.54;40.72;101184.28;5087520;28;20029;-66
2023/09/03 13:35:09;;;;;;;1.37;0.87;;;;;;;30.76;41.73;101182.44;5074478;28;20032;-65
2023/09/03 13:37:36;;;;;;;1.33;1.10;;;;;;;31.41;40.95;101172.00;5068009;28;20032;-65
2023/09/03 13:40:05;;;;;;;1.92;1.08;;;;;;;31.51;40.71;101171.94;5074089;28;20077;-65
2023/09/03 13:42:30;;;;;;;1.00;0.90;;;;;;;32.00;41.39;101176.34;5068501;28;20033;-65
2023/09/03 13:44:56;;;;;;;1.70;1.20;;;;;;;32.30;39.62;101180.66;5074479;28;20063;-65
2023/09/03 13:47:21;;;;;;;2.37;1.10;;;;;;;32.08;40.15;101189.50;5074494;28;20082;-66
2023/09/03 13:49:49;;;;;;;1.60;1.03;;;;;;;32.02;40.71;101184.34;5074124;28;20047;-65
2023/09/03 13:52:15;;;;;;;1.70;0.90;;;;;;;31.98;39.71;101175.00;5074300;28;20142;-66
2023/09/03 13:54:40;;;;;;;1.40;1.00;;;;;;;31.45;41.42;101178.59;5073824;28;20067;-66
2023/09/03 13:57:06;;;;;;;1.37;1.10;;;;;;;31.16;41.77;101173.03;5074279;28;20084;-65
2023/09/03 13:59:33;;;;;;;1.77;1.20;;;;;;;31.08;41.42;101176.41;5074012;28;20040;-66
2023/09/03 14:01:58;;;;;;;1.63;1.10;;;;;;;30.80;41.16;101170.59;5074251;28;20058;-66
2023/09/03 14:04:25;;;;;;;0.93;0.90;;;;;;;30.40;42.49;101165.34;5074252;28;20119;-67
2023/09/03 14:06:51;;;;;;;1.20;1.00;;;;;;;30.21;43.18;101174.22;5074016;28;20037;-64
2023/09/03 14:09:17;;;;;;;4.03;1.10;;;;;;;29.66;43.59;101170.53;5073804;28;20052;-66
2023/09/03 14:11:42;;;;;;;1.63;1.00;;;;;;;29.79;45.11;101173.78;5074053;28;20112;-64
2023/09/03 14:14:08;;;;;;;1.30;1.07;;;;;;;29.71;44.68;101173.25;5073540;28;20032;-65
2023/09/03 14:16:33;;;;;;;2.17;1.10;;;;;;;29.69;43.35;101169.16;5072750;28;20040;-65
2023/09/03 14:18:58;;;;;;;0.80;0.80;;;;;;;29.50;42.92;101168.09;5073652;28;20054;-64
2023/09/03 14:21:24;;;;;;;1.67;1.23;;;;;;;29.17;43.28;101162.09;5073566;28;20491;-65
2023/09/03 14:23:50;;;;;;;1.58;1.10;;;;;;;29.12;44.70;101156.59;5073808;28;20048;-65
2023/09/03 14:26:16;;;;;;;0.80;0.80;;;;;;;28.93;44.29;101150.84;5073716;28;20036;-65
2023/09/03 14:28:42;;;;;;;1.55;0.93;;;;;;;28.92;43.89;101154.69;5073710;28;20385;-66
2023/09/03 14:31:07;;;;;;;2.58;1.77;;;;;;;28.41;45.67;101156.47;5073448;28;20492;-66
2023/09/03 14:33:33;;;;;;;1.10;1.00;;;;;;;28.59;45.33;101150.50;5073584;28;20575;-67
2023/09/03 14:35:58;;;;;;;1.38;0.90;;;;;;;28.44;46.32;101154.03;5073517;28;20491;-65
2023/09/03 14:38:24;;;;;;;1.30;1.00;;;;;;;28.39;45.36;101143.88;5073381;28;20399;-66
2023/09/03 14:40:50;;;;;;;1.20;1.00;;;;;;;28.38;45.68;101144.97;5073177;28;20177;-67
2023/09/03 14:43:15;;;;;;;1.08;0.98;;;;;;;28.18;44.16;101144.91;5073444;28;20036;-66
2023/09/03 14:45:41;;;;;;;2.50;1.08;;;;;;;28.12;44.08;101143.22;5073216;28;20512;-64
2023/09/03 14:48:06;;;;;;;1.77;1.00;;;;;;;28.06;44.40;101138.81;5073256;28;20055;-64
2023/09/03 14:50:32;;;;;;;1.58;1.15;;;;;;;27.96;44.45;101156.03;5072981;28;20048;-66
2023/09/03 14:52:57;;;;;;;0.95;0.88;;;;;;;28.07;44.28;101138.56;5073223;28;20036;-64
2023/09/03 14:55:22;;;;;;;0.88;0.82;;;;;;;28.15;45.80;101139.13;5073090;28;20494;-65
2023/09/03 14:57:48;;;;;;;1.58;1.10;;;;;;;27.77;45.58;101144.72;5073071;28;20075;-66
2023/09/03 15:00:14;;;;;;;2.03;1.08;;;;;;;27.68;45.88;101134.50;5072776;28;20047;-65
2023/09/03 15:02:39;;;;;;;1.55;1.08;;;;;;;27.56;46.24;101137.44;5073026;28;20036;-66
2023/09/03 15:05:05;;;;;;;2.88;1.00;;;;;;;27.50;47.00;101136.59;5072180;28;20036;-65
2023/09/03 15:07:30;;;;;;;1.60;0.90;;;;;;;27.74;46.95;101139.78;5072694;28;20407;-64
2023/09/03 15:09:57;;;;;;;2.03;1.10;;;;;;;27.76;47.03;101139.50;5072620;28;20174;-64
2023/09/03 15:12:23;;;;;;;1.33;0.90;;;;;;;27.90;46.72;101131.63;5072756;28;20048;-65
2023/09/03 15:14:48;;;;;;;1.45;1.13;;;;;;;27.89;47.57;101129.97;5072816;28;20036;-65
2023/09/03 15:17:14;;;;;;;3.50;1.42;;;;;;;27.73;48.88;101138.13;5072606;28;20033;-66
2023/09/03 15:19:39;;;;;;;1.95;1.10;;;;;;;27.45;48.14;101141.19;5072432;28;20040;-65
2023/09/03 15:22:04;;;;;;;2.55;0.98;;;;;;;27.69;47.38;101137.00;5072566;28;20032;-66
2023/09/03 15:24:30;;;;;;;1.40;1.30;;;;;;;27.60;48.53;101144.06;5072445;28;20137;-64
2023/09/03 15:26:55;;;;;;;2.10;1.55;;;;;;;27.49;49.64;101145.91;5072591;28;20041;-65
2023/09/03 15:29:20;;;;;;;3.15;1.45;;;;;;;27.20;50.53;101141.88;5072274;28;20052;-65
2023/09/03 15:31:46;;;;;;;3.17;1.63;;;;;;;27.05;51.08;101145.28;5072370;28;20070;-67
2023/09/03 15:34:11;;;;;;;3.42;2.00;;;;;;;26.95;51.87;101145.19;5071215;28;20106;-67
2023/09/03 15:36:38;;;;;;;2.30;1.70;;;;;;;26.90;52.50;101136.94;5072313;28;20051;-67
2023/09/03 15:39:03;;;;;;;2.40;1.77;;;;;;;26.78;53.08;101137.94;5072346;28;20068;-66
2023/09/03 15:41:28;;;;;;;1.88;1.60;;;;;;;26.88;52.59;101139.13;5072115;28;20056;-66
2023/09/03 15:43:56;;;;;;;2.00;1.50;;;;;;;26.65;52.78;101138.34;5072364;28;20545;-65
2023/09/03 15:46:22;;;;;;;;;;;;;;;26.76;53.58;101147.50;5072445;28;20081;-65